KRIV/RIV METAR and TAF weather

Enter ICAO airport designator
Station Type Date Time Source
KRIV METAR 2019/02/18 03:58 UTC NOAA

KRIV 180358Z AUTO 24007KT 10SM SCT028 SCT032 BKN060 07/06 A2993 RMK AO2 DZB11E12RAB12E24DZB33E34RAB34E44DZB44E45 SLP139 P0000 T00680059


Station Type Date Time Source
KRIV Decoded METAR 2019/02/18 03:58 UTC NOAA

Riverside / March Air Force Base, CA, United States (KRIV) 33-54N 117-15W 468M
Feb 17, 2019 - 10:58 PM EST / 2019.02.18 0358 UTC
Wind: from the WSW (240 degrees) at 8 MPH (7 KT):0
Visibility: 10 mile(s):0
Sky conditions: mostly cloudy
Precipitation last hour: A trace
Temperature: 44.2 F (6.8 C)
Dew Point: 42.6 F (5.9 C)
Relative Humidity: 93%
Pressure (altimeter): 29.93 in. Hg (1013 hPa)
ob: KRIV 180358Z AUTO 24007KT 10SM SCT028 SCT032 BKN060 07/06 A2993 RMK AO2 DZB11E12RAB12E24DZB33E34RAB34E44DZB44E45 SLP139 P0000 T00680059
cycle: 4

Station Type Date Time Source
KRIV TAF 2019/02/18 04:06 UTC NOAA

TAF KRIV 180400Z 1804/1910 25009KT 9999 VCSH FEW020 SCT035 SCT060 QNH2992INS
TEMPO 1804/1807 9999 -SHRA SCT020 SCT030 BKN060 620305
BECMG 1807/1808 VRB06KT 9999 NSW FEW025 SCT040 QNH2996INS
BECMG 1818/1819 32009KT 9999 FEW030 SCT050 QNH3000INS
TEMPO 1821/1902 32012G18KT
BECMG 1903/1904 VRB06KT 9999 FEW030 QNH3004INS TX11/1822Z TNM01/1814Z


Example: see airport list